Time;durP1;ratioP1;P1;durP2;ratioP2;P2;SDS_P1;SDS_P2;PMS_P1;PMS_P2;Temp;Humidity;BMP_temperature;BMP_pressure;BME280_temperature;BME280_humidity;BME280_pressure;Samples;Min_cycle;Max_cycle;Signal;HPM_P1;HPM_P2
2023/12/17 00:01:30;;;;;;;9.65;4.25;;;;;;;-1.61;86.71;99654.16;4924947;29;20050;-57
2023/12/17 00:03:56;;;;;;;8.88;4.10;;;;;;;-1.91;86.60;99598.56;4949174;28;20102;-52
2023/12/17 00:06:21;;;;;;;8.18;3.90;;;;;;;-1.69;86.65;99645.56;4956655;28;20606;-53
2023/12/17 00:08:48;;;;;;;8.98;4.30;;;;;;;-1.73;86.98;99628.53;4934834;29;20105;-51
2023/12/17 00:11:14;;;;;;;13.30;4.68;;;;;;;-1.65;87.46;99636.25;4945665;28;20051;-55
2023/12/17 00:13:40;;;;;;;11.10;4.68;;;;;;;-1.63;87.34;99634.59;4936007;29;20507;-54
2023/12/17 00:16:07;;;;;;;9.57;4.35;;;;;;;-1.66;87.40;99630.31;4950733;28;20064;-55
2023/12/17 00:18:33;;;;;;;10.38;4.82;;;;;;;-1.77;87.45;99625.06;4937264;28;20051;-55
2023/12/17 00:20:59;;;;;;;15.30;4.25;;;;;;;-1.96;87.52;99576.38;4950061;28;20093;-53
2023/12/17 00:23:25;;;;;;;8.07;4.53;;;;;;;-1.93;87.70;99574.72;4935251;29;20423;-53
2023/12/17 00:25:51;;;;;;;11.73;4.57;;;;;;;-1.68;87.29;99610.75;4939598;29;20050;-56
2023/12/17 00:28:17;;;;;;;10.05;3.95;;;;;;;-1.73;87.56;99603.88;4948367;28;20508;-51
2023/12/17 00:30:43;;;;;;;9.50;4.10;;;;;;;-1.95;87.75;99557.72;4916737;29;20511;-56
2023/12/17 00:33:10;;;;;;;11.02;4.55;;;;;;;-1.74;87.41;99589.44;4912556;29;20039;-57
2023/12/17 00:35:36;;;;;;;11.48;3.60;;;;;;;-1.84;87.80;99579.13;4909935;29;20547;-57
2023/12/17 00:38:02;;;;;;;11.95;4.60;;;;;;;-1.81;87.77;99571.50;4955517;28;20144;-56
2023/12/17 00:40:28;;;;;;;8.82;4.78;;;;;;;-1.80;87.70;99573.22;4935338;29;20043;-57
2023/12/17 00:42:54;;;;;;;9.15;4.43;;;;;;;-1.76;88.00;99562.22;4950302;28;20069;-55
2023/12/17 00:45:20;;;;;;;7.80;4.07;;;;;;;-1.74;88.11;99556.31;4921473;29;20578;-52
2023/12/17 00:47:46;;;;;;;11.38;5.10;;;;;;;-1.67;87.86;99549.59;4935928;28;20515;-53
2023/12/17 00:50:11;;;;;;;9.63;4.20;;;;;;;-1.73;87.87;99552.09;4941543;28;20066;-53
2023/12/17 00:52:38;;;;;;;9.73;4.18;;;;;;;-1.76;87.92;99550.34;4942735;28;20035;-57
2023/12/17 00:55:04;;;;;;;9.18;4.28;;;;;;;-1.81;87.84;99541.78;4949345;28;20105;-55
2023/12/17 00:57:32;;;;;;;7.72;3.75;;;;;;;-1.79;87.64;99544.34;4944702;28;20047;-55
2023/12/17 00:59:58;;;;;;;8.25;4.20;;;;;;;-2.28;87.54;99469.84;4944151;29;20043;-54
2023/12/17 01:02:24;;;;;;;11.32;4.63;;;;;;;-1.94;87.66;99522.09;4937111;28;20478;-55
2023/12/17 01:04:50;;;;;;;12.30;4.18;;;;;;;-1.94;87.50;99521.25;4936926;29;20054;-56
2023/12/17 01:07:16;;;;;;;11.13;4.47;;;;;;;-1.88;87.60;99518.75;4941031;28;20047;-56
2023/12/17 01:09:42;;;;;;;11.75;5.07;;;;;;;-1.90;87.34;99520.44;4939151;29;20436;-55
2023/12/17 01:12:08;;;;;;;12.30;5.22;;;;;;;-1.92;87.64;99504.25;4935240;28;20039;-53
2023/12/17 01:14:34;;;;;;;9.07;3.97;;;;;;;-1.85;87.36;99506.91;4945461;28;20043;-56
2023/12/17 01:17:02;;;;;;;11.38;4.65;;;;;;;-1.88;87.18;99506.88;4935716;29;20599;-54
2023/12/17 01:19:28;;;;;;;14.30;4.22;;;;;;;-1.91;87.01;99501.75;4948581;28;20153;-55
2023/12/17 01:21:54;;;;;;;11.32;4.13;;;;;;;-1.90;86.63;99493.28;4948785;29;20054;-57
2023/12/17 01:24:20;;;;;;;10.32;4.20;;;;;;;-2.05;86.38;99452.34;4947609;29;20042;-52
2023/12/17 01:26:46;;;;;;;8.30;4.25;;;;;;;-2.07;86.09;99451.44;4934509;28;20051;-53
2023/12/17 01:29:12;;;;;;;10.50;4.30;;;;;;;-1.83;86.10;99471.25;4944742;28;20050;-56
2023/12/17 01:31:38;;;;;;;8.32;3.95;;;;;;;-1.78;86.40;99470.47;4936344;29;20047;-53
2023/12/17 01:34:06;;;;;;;9.07;3.88;;;;;;;-1.96;85.80;99437.16;4954852;28;20046;-56
2023/12/17 01:36:33;;;;;;;9.23;3.77;;;;;;;-1.71;85.68;99463.75;4923784;28;20134;-54
2023/12/17 01:38:58;;;;;;;11.15;4.50;;;;;;;-1.69;85.62;99454.44;4936427;28;20154;-55
2023/12/17 01:41:24;;;;;;;10.80;4.20;;;;;;;-1.75;84.60;99442.50;4946748;28;20422;-54
2023/12/17 01:43:50;;;;;;;7.55;2.92;;;;;;;-1.77;83.83;99430.56;4917662;29;20043;-52
2023/12/17 01:46:17;;;;;;;8.05;3.42;;;;;;;-1.81;83.41;99434.78;4939051;29;20049;-54
2023/12/17 01:48:43;;;;;;;9.60;3.45;;;;;;;-1.80;83.25;99443.28;4928132;29;20427;-55
2023/12/17 01:51:09;;;;;;;5.75;2.67;;;;;;;-1.80;82.66;99435.63;4927072;29;20121;-53
2023/12/17 01:53:35;;;;;;;5.93;3.08;;;;;;;-1.79;82.22;99429.72;4936504;29;20413;-55
2023/12/17 01:56:01;;;;;;;5.72;2.80;;;;;;;-1.79;81.60;99427.16;4927165;28;20039;-59
2023/12/17 01:58:27;;;;;;;6.55;3.17;;;;;;;-1.83;81.22;99423.69;4950545;29;20047;-52
2023/12/17 02:00:54;;;;;;;5.40;2.47;;;;;;;-1.88;80.32;99409.19;4938924;28;20035;-52
2023/12/17 02:03:19;;;;;;;5.88;2.72;;;;;;;-1.87;80.10;99419.41;4953449;28;20050;-58
2023/12/17 02:05:48;;;;;;;6.85;2.45;;;;;;;-1.90;79.37;99418.53;4935569;29;20043;-56
2023/12/17 02:08:14;;;;;;;5.77;1.90;;;;;;;-2.14;79.16;99381.75;4941636;29;20053;-52
2023/12/17 02:10:40;;;;;;;4.85;2.10;;;;;;;-1.86;78.99;99410.09;4937045;29;20051;-55
2023/12/17 02:13:09;;;;;;;3.53;1.77;;;;;;;-1.83;78.59;99403.31;4935535;29;20467;-54
2023/12/17 02:15:39;;;;;;;4.78;2.17;;;;;;;-1.87;78.41;99398.19;4939056;29;20035;-55
2023/12/17 02:18:05;;;;;;;5.40;2.25;;;;;;;-1.83;78.55;99402.47;4946333;29;20086;-52
2023/12/17 02:20:52;;;;;;;5.50;2.53;;;;;;;-1.85;78.41;99401.63;4938984;29;20102;-55
2023/12/17 02:23:18;;;;;;;4.93;2.05;;;;;;;-1.87;78.65;99406.69;4941761;28;20051;-54
2023/12/17 02:25:44;;;;;;;6.00;2.30;;;;;;;-2.19;78.63;99346.88;4921414;29;20050;-55
2023/12/17 02:28:10;;;;;;;5.07;2.03;;;;;;;-1.93;78.92;99385.38;4933821;28;20466;-54
2023/12/17 02:30:36;;;;;;;3.60;2.00;;;;;;;-1.99;78.68;99375.16;4947216;29;20264;-55
2023/12/17 02:33:02;;;;;;;4.05;2.03;;;;;;;-2.00;79.12;99363.25;4925476;29;20035;-54
2023/12/17 02:35:28;;;;;;;5.78;2.35;;;;;;;-1.96;79.28;99381.13;4924085;29;20057;-57
2023/12/17 02:37:54;;;;;;;6.50;2.63;;;;;;;-2.24;79.49;99326.47;4948603;28;20036;-55
2023/12/17 02:40:20;;;;;;;5.20;2.72;;;;;;;-1.99;80.16;99370.06;4942457;28;20039;-55
2023/12/17 02:42:45;;;;;;;4.18;2.13;;;;;;;-2.04;80.20;99354.69;4947509;29;20047;-55
2023/12/17 02:45:12;;;;;;;5.70;2.45;;;;;;;-2.04;80.51;99336.88;4949213;28;20042;-54
2023/12/17 02:47:38;;;;;;;5.32;2.35;;;;;;;-1.99;80.50;99332.66;4939560;29;20051;-52
2023/12/17 02:50:05;;;;;;;6.13;2.83;;;;;;;-2.00;80.86;99335.22;4946916;29;20426;-53
2023/12/17 02:52:31;;;;;;;5.70;2.83;;;;;;;-2.00;80.88;99330.13;4946907;28;20050;-54
2023/12/17 02:54:57;;;;;;;5.07;2.80;;;;;;;-2.08;81.45;99334.28;4922357;29;20052;-55
2023/12/17 02:57:25;;;;;;;6.95;2.65;;;;;;;-2.13;81.85;99331.69;4944516;28;20051;-51
2023/12/17 02:59:54;;;;;;;5.45;3.00;;;;;;;-2.05;82.50;99326.69;4931852;29;20125;-52
2023/12/17 03:02:21;;;;;;;8.00;3.20;;;;;;;-2.10;82.45;99323.25;4928220;29;20046;-51
2023/12/17 03:04:47;;;;;;;3.95;2.20;;;;;;;-2.33;82.75;99266.97;4947634;28;20051;-54
2023/12/17 03:07:14;;;;;;;7.38;3.28;;;;;;;-2.26;82.98;99279.81;4916263;29;20054;-54
2023/12/17 03:09:40;;;;;;;7.32;3.38;;;;;;;-2.15;83.22;99288.38;4946912;28;20471;-54
2023/12/17 03:12:06;;;;;;;7.95;3.67;;;;;;;-2.10;83.17;99287.59;4948351;28;20039;-55
2023/12/17 03:14:32;;;;;;;6.93;3.15;;;;;;;-2.09;83.21;99284.22;4954814;28;20070;-54
2023/12/17 03:16:58;;;;;;;4.95;2.20;;;;;;;-2.13;83.27;99276.53;4938177;29;20062;-56
2023/12/17 03:19:24;;;;;;;7.35;2.70;;;;;;;-2.41;82.69;99233.84;4936080;29;20057;-55
2023/12/17 03:21:50;;;;;;;6.32;2.50;;;;;;;-2.21;82.78;99250.16;4932201;29;20046;-50
2023/12/17 03:24:16;;;;;;;7.82;3.22;;;;;;;-2.18;83.10;99244.22;4947302;29;20129;-53
2023/12/17 03:26:42;;;;;;;6.63;2.72;;;;;;;-2.15;82.81;99234.91;4930989;29;20143;-52
2023/12/17 03:29:09;;;;;;;6.60;3.13;;;;;;;-2.11;82.86;99232.41;4941931;29;20043;-51
2023/12/17 03:31:34;;;;;;;6.45;2.47;;;;;;;-2.14;82.95;99225.56;4935991;29;20047;-54
2023/12/17 03:34:01;;;;;;;7.50;3.03;;;;;;;-2.15;83.21;99221.34;4922989;29;20043;-54
2023/12/17 03:36:27;;;;;;;6.57;2.65;;;;;;;-2.14;83.23;99208.59;4917603;29;20179;-55
2023/12/17 03:38:53;;;;;;;6.50;3.10;;;;;;;-2.10;83.27;99195.91;4946956;29;20154;-53
2023/12/17 03:41:27;;;;;;;9.23;3.22;;;;;;;-2.14;83.19;99213.69;4949547;28;20423;-54
2023/12/17 03:43:55;;;;;;;7.03;2.72;;;;;;;-2.18;83.50;99188.22;4937848;29;20039;-55
2023/12/17 03:46:22;;;;;;;9.60;3.53;;;;;;;-2.17;83.88;99174.63;4953006;28;20122;-55
2023/12/17 03:48:48;;;;;;;13.40;4.60;;;;;;;-2.15;84.18;99173.78;4950188;28;20070;-51
2023/12/17 03:51:14;;;;;;;9.43;3.53;;;;;;;-2.14;84.27;99172.97;4934388;29;20039;-54
2023/12/17 03:53:40;;;;;;;8.98;3.67;;;;;;;-2.14;84.28;99167.88;4953477;28;20058;-52
2023/12/17 03:56:10;;;;;;;8.00;3.13;;;;;;;-2.15;84.40;99181.44;4927674;29;20047;-56
2023/12/17 03:58:37;;;;;;;5.40;2.67;;;;;;;-2.24;84.98;99171.19;4940158;29;20116;-56
2023/12/17 04:01:05;;;;;;;9.05;3.10;;;;;;;-2.27;85.40;99170.31;4936281;29;20066;-51
2023/12/17 04:03:32;;;;;;;10.63;3.70;;;;;;;-2.26;85.59;99167.78;4950790;28;20102;-55
2023/12/17 04:05:59;;;;;;;11.05;4.20;;;;;;;-2.42;86.06;99137.09;4931955;29;20672;-56
2023/12/17 04:08:25;;;;;;;11.90;4.43;;;;;;;-2.21;86.23;99145.78;4944891;29;20101;-55
2023/12/17 04:10:51;;;;;;;10.68;3.80;;;;;;;-2.10;86.24;99158.59;4933463;29;20073;-54
2023/12/17 04:13:18;;;;;;;9.25;4.18;;;;;;;-2.13;86.39;99148.34;4950311;28;20054;-52
2023/12/17 04:15:44;;;;;;;8.13;3.67;;;;;;;-2.16;86.28;99140.72;4928526;29;20039;-56
2023/12/17 04:18:10;;;;;;;8.13;4.15;;;;;;;-2.19;86.66;99128.78;4954870;28;20054;-53
2023/12/17 04:20:36;;;;;;;7.40;3.45;;;;;;;-2.19;86.79;99118.59;4937343;29;20085;-57
2023/12/17 04:23:01;;;;;;;9.68;4.03;;;;;;;-2.19;86.73;99107.56;4935752;28;20621;-52
2023/12/17 04:25:27;;;;;;;8.82;4.03;;;;;;;-2.13;87.00;99107.63;4952518;28;20538;-55
2023/12/17 04:27:53;;;;;;;11.98;3.95;;;;;;;-2.11;87.06;99094.91;4947917;28;20415;-53
2023/12/17 04:30:19;;;;;;;9.05;4.22;;;;;;;-2.02;87.08;99077.97;4936020;29;20435;-55
2023/12/17 04:32:45;;;;;;;10.10;4.30;;;;;;;-1.96;86.76;99085.66;4950680;28;20047;-55
2023/12/17 04:35:11;;;;;;;7.00;3.00;;;;;;;-2.01;86.69;99059.31;4941819;29;20042;-52
2023/12/17 04:37:37;;;;;;;11.05;4.53;;;;;;;-1.97;86.44;99055.09;4950160;28;20830;-52
2023/12/17 04:40:03;;;;;;;10.05;4.32;;;;;;;-1.85;86.60;99047.53;4927749;29;20043;-56
2023/12/17 04:42:31;;;;;;;9.35;3.53;;;;;;;-1.89;86.38;99027.97;4955425;28;20039;-51
2023/12/17 04:44:57;;;;;;;11.02;4.28;;;;;;;-1.89;86.44;99036.47;4951327;28;20102;-51
2023/12/17 04:47:24;;;;;;;8.50;2.90;;;;;;;-1.99;86.29;99013.50;4940239;29;20043;-53
2023/12/17 04:49:50;;;;;;;6.80;3.00;;;;;;;-1.93;86.14;99023.69;4938172;29;20046;-56
2023/12/17 04:52:16;;;;;;;5.93;2.78;;;;;;;-2.02;86.22;99016.88;4933652;29;20154;-55
2023/12/17 04:54:41;;;;;;;8.20;3.28;;;;;;;-1.97;86.49;99011.78;4941093;29;20437;-55
2023/12/17 04:57:07;;;;;;;7.00;3.58;;;;;;;-1.87;86.34;99010.97;4943625;29;20102;-55
2023/12/17 04:59:33;;;;;;;7.45;3.33;;;;;;;-1.84;86.40;99000.81;4917194;29;20047;-53
2023/12/17 05:01:59;;;;;;;7.03;3.25;;;;;;;-1.87;86.20;99000.78;4940784;29;20035;-54
2023/12/17 05:04:25;;;;;;;7.05;3.08;;;;;;;-2.06;86.11;98941.31;4945655;28;20050;-49
2023/12/17 05:06:51;;;;;;;7.20;3.38;;;;;;;-1.87;85.98;98962.59;4944505;28;20053;-51
2023/12/17 05:09:16;;;;;;;7.63;2.92;;;;;;;-1.80;86.34;98965.19;4950711;28;20051;-56
2023/12/17 05:11:42;;;;;;;7.32;3.15;;;;;;;-1.82;85.97;98954.13;4935292;29;20043;-52
2023/12/17 05:14:08;;;;;;;7.43;3.55;;;;;;;-1.75;86.10;98942.25;4923275;28;20043;-55
2023/12/17 05:16:34;;;;;;;8.75;3.28;;;;;;;-1.92;85.92;98898.91;4951608;28;20094;-53
2023/12/17 05:19:00;;;;;;;9.15;3.70;;;;;;;-1.83;85.83;98895.50;4935352;28;20473;-52
2023/12/17 05:21:26;;;;;;;6.18;3.17;;;;;;;-1.58;85.60;98924.47;4949259;28;20074;-55
2023/12/17 05:23:52;;;;;;;5.82;3.08;;;;;;;-1.48;85.36;98921.09;4947053;28;20047;-53
2023/12/17 05:26:17;;;;;;;6.30;3.17;;;;;;;-1.62;85.22;98870.06;4919669;29;20543;-55
2023/12/17 05:28:43;;;;;;;7.13;3.25;;;;;;;-1.66;85.26;98855.63;4929243;28;20045;-53
2023/12/17 05:31:10;;;;;;;6.53;2.80;;;;;;;-1.67;85.28;98850.56;4952971;28;20046;-55
2023/12/17 05:33:35;;;;;;;6.85;2.67;;;;;;;-1.45;84.78;98890.47;4947506;29;20050;-55
2023/12/17 05:36:04;;;;;;;5.00;2.65;;;;;;;-1.47;84.63;98890.50;4930462;29;20134;-55
2023/12/17 05:38:30;;;;;;;4.20;2.33;;;;;;;-1.58;84.54;98889.63;4951375;28;20035;-55
2023/12/17 05:40:56;;;;;;;5.15;2.50;;;;;;;-1.66;84.54;98865.84;4951097;28;20043;-57
2023/12/17 05:43:24;;;;;;;7.30;2.95;;;;;;;-1.63;85.02;98870.09;4919059;28;20058;-50
2023/12/17 05:45:50;;;;;;;5.30;2.88;;;;;;;-1.57;85.14;98858.19;4950997;28;20036;-55
2023/12/17 05:48:16;;;;;;;6.88;2.95;;;;;;;-1.75;85.06;98812.31;4953275;28;20047;-55
2023/12/17 05:50:43;;;;;;;7.80;2.35;;;;;;;-1.56;85.24;98841.19;4950039;28;20055;-57
2023/12/17 05:53:09;;;;;;;5.60;2.72;;;;;;;-1.63;85.12;98830.19;4927736;29;20078;-51
2023/12/17 05:55:35;;;;;;;7.03;2.70;;;;;;;-1.63;85.70;98826.78;4917689;29;20047;-54
2023/12/17 05:58:01;;;;;;;7.07;3.38;;;;;;;-1.61;86.07;98825.06;4949464;28;20577;-54
2023/12/17 06:00:27;;;;;;;6.63;3.13;;;;;;;-1.63;86.60;98825.09;4935033;29;20427;-52
2023/12/17 06:02:53;;;;;;;7.93;3.30;;;;;;;-1.66;86.89;98830.16;4948328;28;20042;-55
2023/12/17 06:05:19;;;;;;;7.00;3.28;;;;;;;-1.86;87.14;98793.63;4940597;28;20047;-55
2023/12/17 06:07:45;;;;;;;7.28;3.20;;;;;;;-1.67;88.08;98818.25;4955250;28;20530;-57
2023/12/17 06:10:11;;;;;;;8.40;3.47;;;;;;;-1.72;88.52;98797.88;4940540;28;20035;-56
2023/12/17 06:12:37;;;;;;;6.63;3.45;;;;;;;-1.69;88.76;98802.16;4935388;29;20150;-56
2023/12/17 06:15:03;;;;;;;7.65;3.15;;;;;;;-1.66;88.80;98791.94;4951078;28;20507;-53
2023/12/17 06:17:31;;;;;;;8.13;3.35;;;;;;;-1.64;89.11;98781.75;4934039;28;20043;-53
2023/12/17 06:19:57;;;;;;;6.75;3.25;;;;;;;-1.65;89.09;98786.00;4935451;29;20043;-52
2023/12/17 06:22:24;;;;;;;8.18;2.92;;;;;;;-1.62;89.32;98774.97;4938240;29;20587;-53
2023/12/17 06:24:50;;;;;;;6.38;2.78;;;;;;;-1.58;89.11;98759.69;4947866;28;20097;-53
2023/12/17 06:27:17;;;;;;;5.82;3.25;;;;;;;-1.90;88.87;98700.25;4928949;29;20039;-57
2023/12/17 06:29:43;;;;;;;6.90;3.00;;;;;;;-1.52;89.13;98741.00;4924742;29;20083;-53
2023/12/17 06:32:11;;;;;;;6.57;3.50;;;;;;;-1.44;89.10;98735.00;4936992;29;20052;-52
2023/12/17 06:34:38;;;;;;;8.80;2.95;;;;;;;-1.46;88.92;98739.25;4949902;28;20050;-53
2023/12/17 06:37:04;;;;;;;3.60;2.28;;;;;;;-1.49;88.62;98733.31;4937159;29;20171;-56
2023/12/17 06:39:30;;;;;;;7.00;3.28;;;;;;;-1.45;92.43;98732.47;4948746;28;20298;-58
2023/12/17 06:41:56;;;;;;;6.43;3.35;;;;;;;-1.46;95.14;98718.88;4946580;29;20689;-61
2023/12/17 06:44:24;;;;;;;6.68;2.85;;;;;;;-1.52;96.28;98702.75;4925758;29;20050;-56
2023/12/17 06:46:50;;;;;;;5.55;2.53;;;;;;;-1.54;96.31;98707.84;4927509;28;20075;-58
2023/12/17 06:49:16;;;;;;;6.65;3.13;;;;;;;-1.51;96.90;98687.44;4950489;28;20046;-56
2023/12/17 06:51:42;;;;;;;6.95;3.20;;;;;;;-1.48;97.50;98682.34;4903914;28;20199;-57
2023/12/17 06:54:08;;;;;;;7.55;2.78;;;;;;;-1.43;97.53;98683.19;4922959;28;20145;-54
2023/12/17 06:56:35;;;;;;;7.95;2.97;;;;;;;-1.48;96.42;98684.91;4916264;29;20095;-56
2023/12/17 06:59:02;;;;;;;6.63;3.05;;;;;;;-1.45;95.69;98656.84;4949861;28;20400;-59
2023/12/17 07:01:28;;;;;;;6.82;2.80;;;;;;;-1.72;95.48;98591.53;4948422;28;20031;-56
2023/12/17 07:03:54;;;;;;;8.15;3.22;;;;;;;-1.24;95.36;98640.63;4940744;28;20047;-57
2023/12/17 07:06:21;;;;;;;6.63;2.55;;;;;;;-1.29;93.83;98629.59;4946903;28;20051;-56
2023/12/17 07:08:48;;;;;;;8.38;2.90;;;;;;;-1.18;93.97;98619.34;4931183;29;20138;-56
2023/12/17 07:11:14;;;;;;;7.13;3.15;;;;;;;-1.46;94.28;98560.00;4924569;29;20091;-55
2023/12/17 07:13:40;;;;;;;7.72;3.03;;;;;;;-1.21;93.52;98607.50;4935500;29;20424;-57
2023/12/17 07:16:07;;;;;;;8.43;2.78;;;;;;;-1.20;93.24;98603.25;4952263;28;20046;-52
2023/12/17 07:18:33;;;;;;;6.25;3.10;;;;;;;-1.46;93.16;98560.84;4937283;29;20075;-55
2023/12/17 07:20:59;;;;;;;6.70;2.33;;;;;;;-1.27;92.83;98587.13;4956033;28;20043;-57
2023/12/17 07:23:27;;;;;;;3.70;1.88;;;;;;;-1.30;92.96;98595.63;4922244;29;20043;-57
2023/12/17 07:25:53;;;;;;;7.93;2.22;;;;;;;-1.34;93.04;98590.53;4946088;29;20506;-56
2023/12/17 07:28:19;;;;;;;5.20;2.15;;;;;;;-1.35;93.44;98582.03;4954394;28;20049;-57
2023/12/17 07:30:44;;;;;;;5.03;1.88;;;;;;;-1.37;93.67;98588.00;4950548;29;20186;-55
2023/12/17 07:33:10;;;;;;;7.75;2.65;;;;;;;-1.57;93.85;98549.84;4954010;29;20515;-53
2023/12/17 07:35:36;;;;;;;3.92;2.35;;;;;;;-1.54;94.00;98532.03;4947520;29;20051;-56
2023/12/17 07:38:02;;;;;;;6.22;3.13;;;;;;;-1.32;94.06;98540.41;4949329;28;20045;-55
2023/12/17 07:40:28;;;;;;;3.55;1.80;;;;;;;-1.30;94.08;98543.78;4928865;29;20050;-54
2023/12/17 07:42:54;;;;;;;3.03;1.42;;;;;;;-1.25;94.24;98524.19;4941074;29;20817;-54
2023/12/17 07:45:20;;;;;;;3.80;1.63;;;;;;;-1.17;94.23;98534.38;4951365;29;20133;-55
2023/12/17 07:47:45;;;;;;;9.38;2.50;;;;;;;-1.22;93.76;98531.84;4942118;29;20035;-54
2023/12/17 07:50:11;;;;;;;4.40;2.10;;;;;;;-1.18;93.54;98538.63;4950202;29;20498;-56
2023/12/17 07:52:37;;;;;;;2.75;1.50;;;;;;;-1.17;93.50;98513.97;4952324;28;20039;-52
2023/12/17 07:55:03;;;;;;;3.33;1.52;;;;;;;-1.12;93.50;98515.63;4940641;29;20035;-54
2023/12/17 07:57:30;;;;;;;1.35;0.90;;;;;;;-1.17;93.86;98502.06;4919891;29;20133;-56
2023/12/17 07:59:56;;;;;;;3.47;1.05;;;;;;;-1.12;95.54;98502.03;4933802;29;20587;-52
2023/12/17 08:02:22;;;;;;;2.70;1.83;;;;;;;-1.37;96.14;98463.13;4941107;29;20047;-57
2023/12/17 08:04:49;;;;;;;2.72;1.15;;;;;;;-1.14;96.86;98485.88;4945074;28;20048;-56
2023/12/17 08:07:15;;;;;;;1.35;1.20;;;;;;;-1.22;97.23;98490.22;4942182;28;20047;-55
2023/12/17 08:09:41;;;;;;;2.95;0.93;;;;;;;-1.21;97.20;98497.00;4940655;29;20051;-55
2023/12/17 08:12:08;;;;;;;4.80;1.48;;;;;;;-1.24;97.56;98461.31;4951149;28;20066;-57
2023/12/17 08:14:33;;;;;;;1.45;0.85;;;;;;;-1.38;97.57;98423.19;4947638;28;20038;-54
2023/12/17 08:16:59;;;;;;;3.13;0.60;;;;;;;-1.16;98.34;98454.47;4950466;28;20043;-55
2023/12/17 08:19:25;;;;;;;2.10;1.23;;;;;;;-1.23;98.24;98445.16;4936877;29;20051;-54
2023/12/17 08:21:51;;;;;;;2.58;1.30;;;;;;;-1.40;98.74;98405.34;4947736;29;20054;-57
2023/12/17 08:24:17;;;;;;;3.67;1.25;;;;;;;-1.41;99.29;98407.91;4932214;29;20058;-52
2023/12/17 08:26:43;;;;;;;2.83;1.33;;;;;;;-1.11;99.24;98447.63;4921288;29;20542;-54
2023/12/17 08:29:09;;;;;;;3.78;1.10;;;;;;;-1.14;98.97;98440.84;4961329;28;20042;-51
2023/12/17 08:31:34;;;;;;;3.67;1.05;;;;;;;-1.07;98.66;98429.75;4952511;28;20035;-56
2023/12/17 08:34:00;;;;;;;2.33;1.20;;;;;;;-1.06;98.52;98416.13;4944390;29;20456;-54
2023/12/17 08:36:28;;;;;;;2.20;1.00;;;;;;;-1.06;98.34;98407.66;4945714;28;20043;-58
2023/12/17 08:38:54;;;;;;;3.67;1.23;;;;;;;-1.02;98.66;98407.59;4936697;29;20034;-53
2023/12/17 08:41:20;;;;;;;1.10;1.00;;;;;;;-0.96;98.70;98402.44;4944113;29;20048;-56
2023/12/17 08:43:46;;;;;;;2.28;0.80;;;;;;;-0.98;98.61;98398.22;4947463;28;20102;-59
2023/12/17 08:46:12;;;;;;;5.05;1.02;;;;;;;-1.29;98.60;98336.44;4931649;29;20073;-58
2023/12/17 08:48:38;;;;;;;4.00;1.45;;;;;;;-1.02;98.65;98371.03;4928239;29;20047;-58
2023/12/17 08:51:05;;;;;;;1.95;1.13;;;;;;;-1.04;99.32;98348.09;4919229;28;20566;-55
2023/12/17 08:53:31;;;;;;;2.42;1.25;;;;;;;-0.77;99.13;98385.25;4936435;29;20581;-55
2023/12/17 08:55:57;;;;;;;0.38;0.38;;;;;;;-0.74;99.08;98382.69;4950439;28;20133;-57
2023/12/17 08:58:23;;;;;;;2.10;0.90;;;;;;;-0.72;99.04;98380.09;4935464;29;20039;-55
2023/12/17 09:00:48;;;;;;;2.15;1.02;;;;;;;-0.65;99.57;98392.78;4929831;29;20176;-58
2023/12/17 09:03:14;;;;;;;1.67;0.95;;;;;;;-0.60;99.47;98362.09;4950128;28;20043;-55
2023/12/17 09:05:40;;;;;;;3.55;1.50;;;;;;;-0.56;99.50;98363.75;4932857;28;20050;-53
2023/12/17 09:08:06;;;;;;;2.38;1.27;;;;;;;-0.60;99.36;98357.00;4957021;28;20042;-57
2023/12/17 09:10:32;;;;;;;2.13;1.10;;;;;;;-0.58;99.53;98357.84;4899515;29;20043;-58
2023/12/17 09:12:58;;;;;;;3.63;1.40;;;;;;;-0.49;99.94;98348.38;4930101;29;20039;-51
2023/12/17 09:15:24;;;;;;;2.05;1.15;;;;;;;-0.46;100.00;98350.88;4948474;29;20039;-55
2023/12/17 09:17:50;;;;;;;2.10;1.42;;;;;;;-0.45;100.00;98349.16;4945022;29;20282;-56
2023/12/17 09:20:17;;;;;;;1.88;1.20;;;;;;;-0.38;100.00;98345.69;4946011;29;20483;-58
2023/12/17 09:22:43;;;;;;;4.20;1.08;;;;;;;-0.39;100.00;98328.69;4946797;28;20179;-57
2023/12/17 09:25:09;;;;;;;4.18;1.75;;;;;;;-0.34;100.00;98329.47;4944660;29;20071;-57
2023/12/17 09:27:36;;;;;;;1.40;1.25;;;;;;;-0.31;100.00;98328.56;4928889;29;20039;-57
2023/12/17 09:30:02;;;;;;;1.73;0.88;;;;;;;-0.26;100.00;98316.63;4946421;28;20146;-56
2023/12/17 09:32:30;;;;;;;1.33;0.90;;;;;;;-0.16;100.00;98324.09;4945678;29;20043;-55
2023/12/17 09:34:56;;;;;;;2.03;0.85;;;;;;;-0.12;100.00;98313.00;4950005;29;20039;-55
2023/12/17 09:37:22;;;;;;;2.95;1.10;;;;;;;-0.10;100.00;98293.38;4941571;29;20133;-54
2023/12/17 09:39:48;;;;;;;1.65;1.10;;;;;;;-0.03;100.00;98314.56;4933644;29;20039;-53
2023/12/17 09:42:19;;;;;;;5.60;1.83;;;;;;;-0.07;100.00;98311.22;4918058;29;20043;-55
2023/12/17 09:44:45;;;;;;;2.38;0.95;;;;;;;0.05;100.00;98286.38;4951111;29;20106;-53
2023/12/17 09:47:11;;;;;;;2.97;0.90;;;;;;;0.07;100.00;98300.78;4951072;29;20094;-54
2023/12/17 09:49:37;;;;;;;3.40;0.65;;;;;;;0.12;100.00;98286.25;4934164;29;20126;-55
2023/12/17 09:52:07;;;;;;;1.75;0.50;;;;;;;0.18;100.00;98287.88;4950858;29;20051;-56
2023/12/17 09:54:32;;;;;;;1.27;0.82;;;;;;;-0.29;100.00;98194.94;4934037;29;20852;-57
2023/12/17 09:57:00;;;;;;;0.85;0.52;;;;;;;-0.06;100.00;98226.06;4933573;29;20039;-55
2023/12/17 09:59:26;;;;;;;0.43;0.38;;;;;;;0.32;100.00;98273.16;4933867;29;20062;-58
2023/12/17 10:01:52;;;;;;;1.90;0.80;;;;;;;0.39;100.00;98275.59;4950830;29;20074;-56
2023/12/17 10:04:24;;;;;;;1.10;0.45;;;;;;;0.45;100.00;98273.81;4917851;29;20039;-57
2023/12/17 10:06:53;;;;;;;1.42;0.70;;;;;;;0.49;100.00;98262.66;4950889;29;20043;-58
2023/12/17 10:09:20;;;;;;;3.20;1.13;;;;;;;0.26;100.00;98233.19;4933416;29;20138;-54
2023/12/17 10:11:46;;;;;;;1.60;0.80;;;;;;;0.33;100.00;98232.25;4933875;29;20463;-56
2023/12/17 10:14:26;;;;;;;1.02;0.60;;;;;;;0.36;100.00;98219.41;4933933;29;20051;-55
2023/12/17 10:16:52;;;;;;;1.02;0.43;;;;;;;0.68;100.00;98267.41;4917685;29;20507;-56
2023/12/17 10:19:18;;;;;;;1.30;0.30;;;;;;;0.76;100.00;98280.06;4950510;29;20507;-57
2023/12/17 10:21:45;;;;;;;1.17;0.80;;;;;;;0.53;100.00;98220.81;4950485;29;20055;-57
2023/12/17 10:24:11;;;;;;;0.50;0.30;;;;;;;0.87;100.00;98267.94;4933560;29;20079;-57
2023/12/17 10:26:47;;;;;;;1.40;0.68;;;;;;;0.87;100.00;98264.53;4933356;29;20069;-58
2023/12/17 10:29:20;;;;;;;0.88;0.75;;;;;;;0.93;100.00;98267.84;4933193;29;20179;-57
2023/12/17 10:31:47;;;;;;;0.88;0.52;;;;;;;0.94;100.00;98274.66;4934002;29;20129;-57
2023/12/17 10:34:23;;;;;;;1.10;0.60;;;;;;;1.03;100.00;98271.91;4950462;29;20047;-56
2023/12/17 10:36:54;;;;;;;1.80;0.70;;;;;;;1.10;100.00;98263.22;4917564;29;20047;-57
2023/12/17 10:39:20;;;;;;;1.55;1.00;;;;;;;1.18;100.00;98270.75;4933702;28;20047;-59
2023/12/17 10:41:47;;;;;;;1.50;0.57;;;;;;;0.92;100.00;98232.88;4937136;29;20035;-57
2023/12/17 10:44:14;;;;;;;1.05;0.60;;;;;;;1.16;100.00;98275.91;4937233;29;20046;-59
2023/12/17 10:46:42;;;;;;;0.90;0.55;;;;;;;1.16;100.00;98277.59;4937026;29;20563;-59
2023/12/17 10:49:08;;;;;;;1.52;0.70;;;;;;;1.21;100.00;98280.94;4937201;29;20055;-60
2023/12/17 10:51:39;;;;;;;1.48;0.73;;;;;;;1.21;100.00;98294.56;4953692;28;20050;-61
2023/12/17 10:54:09;;;;;;;1.15;0.60;;;;;;;1.25;100.00;98278.31;4937038;29;20125;-59
2023/12/17 10:56:41;;;;;;;4.38;0.85;;;;;;;1.09;100.00;98243.63;4936794;29;20416;-58
2023/12/17 10:59:11;;;;;;;3.28;0.85;;;;;;;1.20;100.00;98236.56;4936996;29;20113;-59
2023/12/17 11:01:38;;;;;;;1.67;0.75;;;;;;;1.42;100.00;98266.84;4936948;29;20555;-56
2023/12/17 11:04:05;;;;;;;7.25;1.08;;;;;;;1.49;100.00;98271.81;4954124;29;20039;-57
2023/12/17 11:06:31;;;;;;;2.38;1.10;;;;;;;1.53;100.00;98285.41;4936836;29;20190;-55
2023/12/17 11:08:56;;;;;;;1.17;0.68;;;;;;;1.61;100.00;98289.50;4953827;29;20039;-57
2023/12/17 11:11:22;;;;;;;1.27;0.70;;;;;;;1.67;100.00;98283.41;4920544;29;20082;-57
2023/12/17 11:13:49;;;;;;;4.00;1.10;;;;;;;1.69;100.00;98291.88;4953928;29;20043;-55
2023/12/17 11:16:22;;;;;;;3.15;1.10;;;;;;;1.69;100.00;98295.28;4936779;29;20063;-55
2023/12/17 11:18:48;;;;;;;4.93;1.42;;;;;;;1.70;100.00;98294.44;4953700;29;20039;-53
2023/12/17 11:21:14;;;;;;;3.00;1.17;;;;;;;1.76;100.00;98292.63;4936379;29;20035;-56
2023/12/17 11:23:40;;;;;;;1.13;0.80;;;;;;;1.56;100.00;98270.00;4936595;29;20542;-55
2023/12/17 11:26:07;;;;;;;11.38;1.10;;;;;;;1.77;100.00;98302.84;4953665;29;20035;-54
2023/12/17 11:28:33;;;;;;;3.85;1.30;;;;;;;1.80;100.00;98301.91;4936366;29;20137;-54